createdAt,value
2022-12-27T00:00:21.065Z,-10902.41
2022-12-27T00:03:28.549Z,-10897.63
2022-12-27T00:06:34.588Z,-10887.97
2022-12-27T00:09:40.959Z,-10903.78
2022-12-27T00:12:46.909Z,-10904.63
2022-12-27T00:15:53.186Z,-10904.91
2022-12-27T00:19:01.015Z,-10910.66
2022-12-27T00:22:07.060Z,-10898.19
2022-12-27T00:25:13.687Z,-10894.28
2022-12-27T00:28:20.068Z,-10892.59
2022-12-27T00:31:27.729Z,-10876.50
2022-12-27T00:34:35.599Z,-10877.06
2022-12-27T00:37:42.049Z,-10878.31
2022-12-27T00:40:49.358Z,-10876.50
2022-12-27T00:43:55.268Z,-10888.13
2022-12-27T00:47:01.389Z,-10885.31
2022-12-27T00:50:09.981Z,-10895.41
2022-12-27T00:53:16.668Z,-10899.75
2022-12-27T00:56:25.076Z,-10900.28
2022-12-27T00:59:31.471Z,-10909.69
2022-12-27T01:02:37.643Z,-10902.13
2022-12-27T01:05:45.555Z,-10903.66
2022-12-27T01:08:52.196Z,-10900.16
2022-12-27T01:11:58.701Z,-10883.91
2022-12-27T01:15:06.592Z,-10890.91
2022-12-27T01:18:12.843Z,-10888.69
2022-12-27T01:21:23.015Z,-10883.63
2022-12-27T01:24:29.567Z,-10889.94
2022-12-27T01:27:35.859Z,-10893.56
2022-12-27T01:30:42.306Z,-10892.59
2022-12-27T01:33:48.833Z,-10896.50
2022-12-27T01:36:56.159Z,-10900.44
2022-12-27T01:40:02.214Z,-10893.16
2022-12-27T01:43:16.743Z,-10883.91
2022-12-27T01:46:23.662Z,-10891.47
2022-12-27T01:49:30.399Z,-10865.31
2022-12-27T01:52:42.237Z,-10874.25
2022-12-27T01:55:52.226Z,-10863.63
2022-12-27T01:59:03.328Z,-10858.88
2022-12-27T02:02:09.768Z,-10873.69
2022-12-27T02:05:17.711Z,-10866.56
2022-12-27T02:08:42.679Z,-10868.53
2022-12-27T02:11:52.915Z,-10873.84
2022-12-27T02:15:02.365Z,-10882.09
2022-12-27T02:18:08.961Z,-10892.59
2022-12-27T02:21:41.460Z,-10891.63
2022-12-27T02:25:15.298Z,-10900.28
2022-12-27T02:28:35.142Z,-10884.34
2022-12-27T02:31:49.412Z,-10877.63
2022-12-27T02:35:05.373Z,-10869.94
2022-12-27T02:38:16.796Z,-10878.59
2022-12-27T02:41:40.572Z,-10886.72
2022-12-27T02:45:12.882Z,-10883.34
2022-12-27T02:48:37.569Z,-10890.78
2022-12-27T02:52:12.719Z,-10870.22
2022-12-27T02:55:35.818Z,-10867.97
2022-12-27T02:58:55.879Z,-10861.25
2022-12-27T03:02:40.309Z,-10873.16
2022-12-27T03:06:22.824Z,-10873.28
2022-12-27T03:09:59.898Z,-10880.69
2022-12-27T03:13:51.828Z,-10879.72
2022-12-27T03:17:07.075Z,-10882.81
2022-12-27T03:20:34.714Z,-10875.81
2022-12-27T03:24:02.050Z,-10881.53
2022-12-27T03:27:18.329Z,-10887.56
2022-12-27T03:30:42.136Z,-10892.59
2022-12-27T03:33:50.729Z,-10890.06
2022-12-27T03:37:16.032Z,-10893.44
2022-12-27T03:40:34.758Z,-10887.28
2022-12-27T03:43:40.766Z,-10862.78
2022-12-27T03:46:47.831Z,-10863.63
2022-12-27T03:50:04.491Z,-10873.97
2022-12-27T03:53:17.164Z,-10876.09
2022-12-27T03:56:25.108Z,-10867.13
2022-12-27T03:59:31.869Z,-10874.97
2022-12-27T04:02:38.294Z,-10885.31
2022-12-27T04:05:44.518Z,-10880.00
2022-12-27T04:09:08.523Z,-10876.63
2022-12-27T04:12:33.385Z,-10887.13
2022-12-27T04:15:57.394Z,-10874.13
2022-12-27T04:19:21.381Z,-10887.28
2022-12-27T04:22:44.950Z,-10875.53
2022-12-27T04:26:08.806Z,-10880.56
2022-12-27T04:29:33.343Z,-10882.81
2022-12-27T04:32:57.023Z,-10883.91
2022-12-27T04:36:06.421Z,-10877.47
2022-12-27T04:39:12.849Z,-10876.63
2022-12-27T04:42:36.777Z,-10883.91
2022-12-27T04:46:01.947Z,-10870.75
2022-12-27T04:49:30.486Z,-10874.97
2022-12-27T04:52:54.452Z,-10876.63
2022-12-27T04:56:00.561Z,-10863.63
2022-12-27T04:59:24.556Z,-10868.25
2022-12-27T05:02:32.346Z,-10870.34
2022-12-27T05:05:40.374Z,-10877.47
2022-12-27T05:09:04.306Z,-10883.09
2022-12-27T05:12:29.036Z,-10887.41
2022-12-27T05:15:34.923Z,-10886.31
2022-12-27T05:18:42.602Z,-10881.97
2022-12-27T05:22:03.117Z,-10882.53
2022-12-27T05:25:30.007Z,-10880.56
2022-12-27T05:28:35.855Z,-10884.75
2022-12-27T05:31:42.242Z,-10880.56
2022-12-27T05:34:49.907Z,-10867.69
2022-12-27T05:37:56.309Z,-10887.28
2022-12-27T05:41:03.855Z,-10880.41
2022-12-27T05:44:09.977Z,-10887.28
2022-12-27T05:47:16.465Z,-10876.09
2022-12-27T05:50:24.199Z,-10869.50
2022-12-27T05:53:30.102Z,-10868.09
2022-12-27T05:56:37.457Z,-10866.84
2022-12-27T05:59:43.604Z,-10875.66
2022-12-27T06:02:50.225Z,-10864.59
2022-12-27T06:06:02.962Z,-10871.75
2022-12-27T06:09:08.830Z,-10867.69
2022-12-27T06:12:14.979Z,-10868.25
2022-12-27T06:15:21.299Z,-10859.28
2022-12-27T06:18:27.355Z,-10864.06
2022-12-27T06:21:35.624Z,-10864.47
2022-12-27T06:24:41.589Z,-10871.03
2022-12-27T06:27:47.681Z,-10871.75
2022-12-27T06:30:53.556Z,-10867.97
2022-12-27T06:33:59.508Z,-10867.00
2022-12-27T06:37:07.158Z,-10881.13
2022-12-27T06:40:13.608Z,-10875.09
2022-12-27T06:43:19.561Z,-10882.81
2022-12-27T06:46:26.365Z,-10880.28
2022-12-27T06:49:32.665Z,-10885.88
2022-12-27T06:52:40.457Z,-10881.81
2022-12-27T06:55:46.528Z,-10878.03
2022-12-27T06:58:53.117Z,-10878.75
2022-12-27T07:01:59.391Z,-10880.00
2022-12-27T07:05:06.652Z,-10878.88
2022-12-27T07:08:14.158Z,-10885.31
2022-12-27T07:11:22.419Z,-10880.00
2022-12-27T07:14:28.746Z,-10889.78
2022-12-27T07:17:36.195Z,-10906.59
2022-12-27T07:20:42.506Z,-10908.56
2022-12-27T07:23:50.452Z,-10911.63
2022-12-27T07:26:56.716Z,-10907.56
2022-12-27T07:30:03.039Z,-10914.28
2022-12-27T07:33:09.404Z,-10935.84
2022-12-27T07:36:18.365Z,-10953.22
2022-12-27T07:39:25.693Z,-10950.28
2022-12-27T07:42:31.654Z,-10965.28
2022-12-27T07:45:38.130Z,-10963.31
2022-12-27T07:48:44.425Z,-10961.91
2022-12-27T07:51:50.339Z,-10973.69
2022-12-27T07:54:57.866Z,-10984.19
2022-12-27T07:58:04.046Z,-10989.81
2022-12-27T08:01:11.151Z,-10999.47
2022-12-27T08:04:17.490Z,-11004.66
2022-12-27T08:07:23.960Z,-11016.88
2022-12-27T08:10:31.572Z,-11026.00
2022-12-27T08:13:37.807Z,-11039.72
2022-12-27T08:16:43.981Z,-11037.50
2022-12-27T08:19:52.896Z,-11044.50
2022-12-27T08:22:59.154Z,-11051.38
2022-12-27T08:26:07.355Z,-11051.66
2022-12-27T08:29:13.545Z,-11056.00
2022-12-27T08:32:19.663Z,-11073.12
2022-12-27T08:35:52.682Z,-11088.28
2022-12-27T08:38:55.512Z,-11106.13
2022-12-27T08:42:03.495Z,-11104.31
2022-12-27T08:45:10.635Z,-11117.94
2022-12-27T08:48:17.792Z,-11113.72
2022-12-27T08:51:34.465Z,-11114.56
2022-12-27T08:54:45.295Z,-11119.88
2022-12-27T08:57:57.000Z,-11118.34
2022-12-27T09:01:07.404Z,-11133.50
2022-12-27T09:04:13.690Z,-11149.53
2022-12-27T09:07:20.000Z,-11152.06
2022-12-27T09:10:26.560Z,-11146.00
2022-12-27T09:13:34.431Z,-11154.72
2022-12-27T09:16:40.965Z,-11251.34
2022-12-27T09:19:47.406Z,-11269.06
2022-12-27T09:22:53.640Z,-11283.41
2022-12-27T09:26:00.113Z,-11280.59
2022-12-27T09:29:08.226Z,-11290.75
2022-12-27T09:32:14.669Z,-11291.03
2022-12-27T09:35:21.167Z,-11305.09
2022-12-27T09:38:27.326Z,-11304.81
2022-12-27T09:42:45.001Z,-11310.88
2022-12-27T09:45:17.315Z,-11312.41
2022-12-27T09:48:32.995Z,-11303.13
2022-12-27T09:51:48.257Z,-11317.22
2022-12-27T09:55:04.717Z,-11312.41
2022-12-27T09:58:25.326Z,-11320.16
2022-12-27T10:01:35.314Z,-11330.16
2022-12-27T10:05:17.937Z,-11330.72
2022-12-27T10:08:27.332Z,-11327.06
2022-12-27T10:11:45.260Z,-11337.91
2022-12-27T10:15:04.534Z,-11339.03
2022-12-27T10:18:23.715Z,-11334.09
2022-12-27T10:21:33.666Z,-11333.28
2022-12-27T10:24:42.562Z,-11333.28
2022-12-27T10:27:49.256Z,-11339.47
2022-12-27T10:30:55.419Z,-11344.66
2022-12-27T10:34:07.593Z,-11342.69
2022-12-27T10:37:17.824Z,-11347.78
2022-12-27T10:40:34.204Z,-11353.53
2022-12-27T10:43:43.779Z,-11341.16
2022-12-27T10:46:54.128Z,-11346.22
2022-12-27T10:50:13.732Z,-11353.81
2022-12-27T10:53:36.018Z,-11352.97
2022-12-27T10:56:44.419Z,-11352.97
2022-12-27T11:00:15.031Z,-11350.03
2022-12-27T11:03:21.687Z,-11355.50
2022-12-27T11:06:29.217Z,-11354.53
2022-12-27T11:09:37.376Z,-11356.94
2022-12-27T11:12:57.087Z,-11353.81
2022-12-27T11:16:03.455Z,-11349.88
2022-12-27T11:19:23.738Z,-11354.09
2022-12-27T11:22:31.505Z,-11349.59
2022-12-27T11:25:48.026Z,-11353.81
2022-12-27T11:28:57.219Z,-11356.78
2022-12-27T11:32:08.704Z,-11356.38
2022-12-27T11:35:19.596Z,-11359.87
2022-12-27T11:38:30.699Z,-11357.50
2022-12-27T11:41:44.293Z,-11357.63
2022-12-27T11:45:01.939Z,-11360.31
2022-12-27T11:48:19.822Z,-11358.47
2022-12-27T11:52:01.928Z,-11360.03
2022-12-27T11:55:46.879Z,-11360.31
2022-12-27T11:59:32.150Z,-11359.59
2022-12-27T12:03:26.972Z,-11364.41
2022-12-27T12:06:45.393Z,-11358.19
2022-12-27T12:10:08.466Z,-11357.22
2022-12-27T12:13:47.426Z,-11354.53
2022-12-27T12:17:11.872Z,-11355.50
2022-12-27T12:20:45.634Z,-11360.31
2022-12-27T12:24:27.944Z,-11359.75
2022-12-27T12:27:54.737Z,-11356.94
2022-12-27T12:31:15.501Z,-11359.31
2022-12-27T12:34:39.484Z,-11358.34
2022-12-27T12:38:03.591Z,-11356.66
2022-12-27T12:41:27.046Z,-11358.06
2022-12-27T12:45:16.762Z,-11352.56
2022-12-27T12:48:50.665Z,-11355.78
2022-12-27T12:52:11.710Z,-11357.34
2022-12-27T12:55:39.839Z,-11355.09
2022-12-27T12:59:02.306Z,-11356.06
2022-12-27T13:02:35.373Z,-11353.13
2022-12-27T13:05:49.171Z,-11357.91
2022-12-27T13:09:04.622Z,-11351.44
2022-12-27T13:12:15.308Z,-11356.50
2022-12-27T13:15:30.540Z,-11351.44
2022-12-27T13:18:50.300Z,-11345.38
2022-12-27T13:22:09.742Z,-11351.84
2022-12-27T13:25:25.576Z,-11357.34
2022-12-27T13:28:43.045Z,-11350.03
2022-12-27T13:31:59.366Z,-11353.41
2022-12-27T13:35:24.081Z,-11344.81
2022-12-27T13:38:43.604Z,-11346.94
2022-12-27T13:42:00.960Z,-11328.34
2022-12-27T13:45:23.248Z,-11309.47
2022-12-27T13:48:57.867Z,-11304.81
2022-12-27T13:52:18.172Z,-11302.28
2022-12-27T13:55:54.612Z,-11295.81
2022-12-27T13:59:28.087Z,-11294.25
2022-12-27T14:03:11.083Z,-11290.47
2022-12-27T14:06:51.670Z,-11283.13
2022-12-27T14:10:12.401Z,-11286.50
2022-12-27T14:13:25.761Z,-11281.03
2022-12-27T14:16:45.176Z,-11275.53
2022-12-27T14:20:18.214Z,-11265.97
2022-12-27T14:23:49.260Z,-11258.09
2022-12-27T14:27:43.281Z,-11255.97
2022-12-27T14:31:31.622Z,-11252.03
2022-12-27T14:35:17.399Z,-11252.59
2022-12-27T14:39:01.989Z,-11254.72
2022-12-27T14:42:37.544Z,-11255.84
2022-12-27T14:46:32.738Z,-11250.78
2022-12-27T14:50:25.799Z,-11256.13
2022-12-27T14:54:06.939Z,-11252.19
2022-12-27T14:57:26.214Z,-11254.16
2022-12-27T15:01:06.611Z,-11255.00
2022-12-27T15:04:38.692Z,-11253.16
2022-12-27T15:08:08.917Z,-11254.16
2022-12-27T15:11:28.450Z,-11253.88
2022-12-27T15:14:50.343Z,-11256.41
2022-12-27T15:18:10.525Z,-11252.59
2022-12-27T15:21:39.885Z,-11252.03
2022-12-27T15:24:59.666Z,-11248.66
2022-12-27T15:28:17.406Z,-11246.84
2022-12-27T15:31:33.014Z,-11246.00
2022-12-27T15:34:51.040Z,-11242.03
2022-12-27T15:38:11.855Z,-11234.88
2022-12-27T15:41:52.139Z,-11218.00
2022-12-27T15:45:05.702Z,-11193.53
2022-12-27T15:48:59.575Z,-11184.25
2022-12-27T15:52:14.859Z,-11175.94
2022-12-27T15:55:33.746Z,-11175.38
2022-12-27T15:58:42.316Z,-11163.59
2022-12-27T16:01:50.409Z,-11171.19
2022-12-27T16:04:59.098Z,-11162.47
2022-12-27T16:08:32.011Z,-11167.38
2022-12-27T16:12:00.756Z,-11161.91
2022-12-27T16:15:41.216Z,-11161.19
2022-12-27T16:19:19.355Z,-11160.22
2022-12-27T16:22:34.028Z,-11154.59
2022-12-27T16:25:42.468Z,-11147.84
2022-12-27T16:28:55.598Z,-11150.09
2022-12-27T16:32:20.759Z,-11142.78
2022-12-27T16:35:30.349Z,-11145.03
2022-12-27T16:38:39.687Z,-11140.53
2022-12-27T16:42:07.282Z,-11136.31
2022-12-27T16:45:34.920Z,-11134.22
2022-12-27T16:49:00.065Z,-11134.78
2022-12-27T16:52:34.764Z,-11128.19
2022-12-27T16:56:03.907Z,-11130.28
2022-12-27T16:59:43.637Z,-11125.78
2022-12-27T17:02:50.365Z,-11135.47
2022-12-27T17:06:30.795Z,-11129.88
2022-12-27T17:09:45.242Z,-11122.00
2022-12-27T17:12:54.981Z,-11126.22
2022-12-27T17:16:08.819Z,-11116.25
2022-12-27T17:19:21.164Z,-11109.34
2022-12-27T17:22:34.574Z,-11108.09
2022-12-27T17:25:49.263Z,-11109.22
2022-12-27T17:29:06.011Z,-11105.72
2022-12-27T17:32:26.253Z,-11102.62
2022-12-27T17:35:40.039Z,-11106.28
2022-12-27T17:39:04.442Z,-11109.34
2022-12-27T17:42:39.443Z,-11103.19
2022-12-27T17:45:51.824Z,-11105.00
2022-12-27T17:48:59.220Z,-11100.09
2022-12-27T17:52:23.302Z,-11098.81
2022-12-27T17:55:48.387Z,-11093.78
2022-12-27T17:59:03.609Z,-11094.31
2022-12-27T18:02:18.213Z,-11089.97
2022-12-27T18:05:29.006Z,-11091.38
2022-12-27T18:08:36.238Z,-11085.91
2022-12-27T18:11:44.394Z,-11080.00
2022-12-27T18:14:56.921Z,-11082.81
2022-12-27T18:18:05.480Z,-11076.63
2022-12-27T18:21:23.516Z,-11079.16
2022-12-27T18:24:32.284Z,-11070.59
2022-12-27T18:27:40.351Z,-11061.06
2022-12-27T18:30:52.599Z,-11068.06
2022-12-27T18:34:03.499Z,-11069.75
2022-12-27T18:37:12.974Z,-11065.00
2022-12-27T18:40:21.623Z,-11067.78
2022-12-27T18:43:29.991Z,-11060.78
2022-12-27T18:46:39.420Z,-11053.63
2022-12-27T18:49:46.456Z,-11054.31
2022-12-27T18:53:03.343Z,-11051.09
2022-12-27T18:56:27.184Z,-11064.28
2022-12-27T18:59:36.363Z,-11063.59
2022-12-27T19:02:43.616Z,-11057.13
2022-12-27T19:06:14.268Z,-11057.28
2022-12-27T19:09:22.425Z,-11055.31
2022-12-27T19:12:34.603Z,-11051.50
2022-12-27T19:15:45.294Z,-11041.41
2022-12-27T19:18:54.632Z,-11036.38
2022-12-27T19:22:01.192Z,-11038.06
2022-12-27T19:25:21.838Z,-11041.28
2022-12-27T19:28:29.944Z,-11039.59
2022-12-27T19:31:41.355Z,-11043.94
2022-12-27T19:34:50.306Z,-11044.50
2022-12-27T19:37:57.419Z,-11035.81
2022-12-27T19:41:05.009Z,-11037.63
2022-12-27T19:44:12.736Z,-11038.59
2022-12-27T19:47:20.254Z,-11041.41
2022-12-27T19:50:26.704Z,-11041.41
2022-12-27T19:53:35.949Z,-11041.69
2022-12-27T19:56:42.099Z,-11041.69
2022-12-27T19:59:48.737Z,-11040.84
2022-12-27T20:02:56.329Z,-11042.53
2022-12-27T20:06:14.194Z,-11044.22
2022-12-27T20:09:27.344Z,-11038.47
2022-12-27T20:12:33.631Z,-11034.13
2022-12-27T20:15:40.165Z,-11036.09
2022-12-27T20:18:48.143Z,-11029.91
2022-12-27T20:21:54.515Z,-11030.47
2022-12-27T20:25:01.077Z,-11031.59
2022-12-27T20:28:07.272Z,-11024.03
2022-12-27T20:31:15.870Z,-11027.81
2022-12-27T20:34:23.859Z,-11021.50
2022-12-27T20:37:29.993Z,-11026.00
2022-12-27T20:40:36.047Z,-11024.03
2022-12-27T20:43:42.635Z,-11016.44
2022-12-27T20:46:50.041Z,-11009.44
2022-12-27T20:49:57.471Z,-11013.94
2022-12-27T20:53:03.874Z,-11012.53
2022-12-27T20:56:11.162Z,-11013.38
2022-12-27T20:59:17.237Z,-11016.44
2022-12-27T21:02:23.793Z,-11022.34
2022-12-27T21:05:31.453Z,-11013.94
2022-12-27T21:08:45.479Z,-11015.75
2022-12-27T21:11:53.958Z,-11017.84
2022-12-27T21:15:00.246Z,-11007.34
2022-12-27T21:18:07.533Z,-11014.34
2022-12-27T21:21:19.616Z,-11003.53
2022-12-27T21:24:26.403Z,-10994.84
2022-12-27T21:27:32.595Z,-10997.38
2022-12-27T21:30:38.797Z,-11001.03
2022-12-27T21:33:45.150Z,-11006.63
2022-12-27T21:36:53.254Z,-11007.47
2022-12-27T21:39:59.588Z,-10999.34
2022-12-27T21:43:05.702Z,-10990.09
2022-12-27T21:46:15.635Z,-10987.44
2022-12-27T21:49:22.023Z,-10994.44
2022-12-27T21:52:30.143Z,-10997.94
2022-12-27T21:55:36.225Z,-10995.00
2022-12-27T21:58:43.563Z,-10995.97
2022-12-27T22:01:51.478Z,-11000.59
2022-12-27T22:04:58.761Z,-10987.28
2022-12-27T22:08:06.841Z,-10986.44
2022-12-27T22:11:13.978Z,-10977.06
2022-12-27T22:14:25.255Z,-10985.03
2022-12-27T22:17:31.836Z,-10981.53
2022-12-27T22:20:41.999Z,-10965.84
2022-12-27T22:23:55.860Z,-10974.38
2022-12-27T22:27:02.010Z,-10990.94
2022-12-27T22:30:08.801Z,-10983.34
2022-12-27T22:33:16.426Z,-10989.94
2022-12-27T22:36:25.043Z,-10987.00
2022-12-27T22:39:32.754Z,-10990.09
2022-12-27T22:42:39.059Z,-10990.09
2022-12-27T22:45:50.309Z,-10985.47
2022-12-27T22:49:01.276Z,-10986.44
2022-12-27T22:52:07.567Z,-10991.34
2022-12-27T22:55:16.319Z,-10993.72
2022-12-27T22:58:22.824Z,-10987.16
2022-12-27T23:01:31.013Z,-10991.22
2022-12-27T23:04:37.383Z,-10987.00
2022-12-27T23:08:06.057Z,-10990.09
2022-12-27T23:11:14.602Z,-10992.19
2022-12-27T23:14:21.134Z,-10982.38
2022-12-27T23:17:27.295Z,-10962.06
2022-12-27T23:20:35.296Z,-10947.50
2022-12-27T23:23:42.115Z,-10952.53
2022-12-27T23:26:49.713Z,-10964.31
2022-12-27T23:29:56.075Z,-10970.47
2022-12-27T23:33:02.419Z,-10974.25
2022-12-27T23:36:09.144Z,-10978.75
2022-12-27T23:39:15.344Z,-10982.25
2022-12-27T23:42:23.223Z,-10979.72
2022-12-27T23:45:29.547Z,-10979.16
2022-12-27T23:48:36.179Z,-10987.00
2022-12-27T23:51:42.634Z,-10983.91
2022-12-27T23:54:48.607Z,-10977.34
2022-12-27T23:57:56.139Z,-10978.03
